North Kingstown, RI (02852)

11:02 AM EDT on August 25, 2016 (GMT -0400)
Stone Gate | | Change Station

Elev 110 ft 41.57 °N, 71.47 °W | Updated 30 seconds ago

Mostly Cloudy
Mostly Cloudy
79.9 °F
Feels Like 82 °F
N
2.9
Wind Variable Wind from SW
Gusts 3.0 mph

Today
High -- | Low -- °F
--% Chance of Precip.
Yesterday
High -- | Low -- °F
Precip. -- in
Pressure 30.10 in
Visibility 10.0 miles
Clouds Few 4000 ft
Mostly Cloudy 25000 ft
Heat Index 82 °F
Dew Point 68 °F
Humidity 66%
Rainfall 0.00 in
Snow Depth Not available.
6:05 AM 7:29 PM
Last Quarter, 45% visible
METAR KPVD 251451Z 25014G21KT 10SM FEW040 BKN250 27/17 A3010 RMK AO2 SLP192 T02720167 58011
Pressure 30.10 in
Visibility 10.0 miles
Clouds Few 4000 ft
Mostly Cloudy 25000 ft
Heat Index 82 °F
Dew Point 68 °F
Humidity 66%
Rainfall 0.00 in
Snow Depth Not available.
6:05 AM 7:29 PM
Last Quarter, 45% visible
METAR KPVD 251451Z 25014G21KT 10SM FEW040 BKN250 27/17 A3010 RMK AO2 SLP192 T02720167 58011

10-Day Weather Forecast

Almanac

Astronomy

Aug. 25, 2016 Rise Set
Actual Time
Civil Twilight
Nautical Twilight
Astronomical Twilight
Moon
Length of Visible Light
Length of Day
Tomorrow will be .
, % of the Moon is Illuminated

Today's Extremes

State Highs State Lows

Community

WunderPhotos

Upload Photos

1,934,854 photos uploaded!

WunderBlog® & News

Nearby

Air Quality

  Air Quality AQ Index Pollutant
Not available.

Snow Depth

Station Depth Elevation

Earthquake Activity

City Distance Mag. Time & Date
Minimum magnitude displayed is 2.5.

Coastal Water Temperatures

Place Temperature

Stations

Nearby Weather Stations

Station Location Temp. Windchill Dew Point Humidity Wind Precip. Elev Updated Type
                   

Watches & Warnings

There are currently no watches in effect.